createdAt,value
2019-04-06T00:01:32.937Z,11.80
2019-04-06T00:04:04.936Z,11.67
2019-04-06T00:06:36.865Z,11.81
2019-04-06T00:09:09.892Z,12.07
2019-04-06T00:11:41.109Z,11.76
2019-04-06T00:14:12.925Z,11.59
2019-04-06T00:16:44.832Z,11.63
2019-04-06T00:19:16.825Z,11.51
2019-04-06T00:21:47.987Z,11.41
2019-04-06T00:24:19.812Z,11.35
2019-04-06T00:26:54.779Z,11.31
2019-04-06T00:29:27.108Z,11.30
2019-04-06T00:32:15.829Z,11.40
2019-04-06T00:34:47.828Z,11.28
2019-04-06T00:37:19.755Z,11.17
2019-04-06T00:39:51.804Z,11.07
2019-04-06T00:42:23.744Z,10.96
2019-04-06T00:44:55.652Z,10.98
2019-04-06T00:47:27.497Z,11.03
2019-04-06T00:49:58.694Z,10.99
2019-04-06T00:52:30.935Z,10.96
2019-04-06T00:55:02.696Z,10.96
2019-04-06T00:57:34.592Z,10.87
2019-04-06T01:00:06.768Z,10.83
2019-04-06T01:02:38.760Z,10.78
2019-04-06T01:05:10.656Z,10.68
2019-04-06T01:07:41.932Z,10.75
2019-04-06T01:10:13.845Z,10.87
2019-04-06T01:12:45.781Z,10.82
2019-04-06T01:15:16.964Z,10.75
2019-04-06T01:17:48.969Z,10.56
2019-04-06T01:20:20.221Z,10.47
2019-04-06T01:22:51.443Z,10.67
2019-04-06T01:25:22.553Z,10.94
2019-04-06T01:27:53.714Z,10.91
2019-04-06T01:30:25.476Z,10.65
2019-04-06T01:32:56.619Z,10.48
2019-04-06T01:35:28.545Z,10.40
2019-04-06T01:38:00.353Z,10.40
2019-04-06T01:40:32.243Z,10.42
2019-04-06T01:43:04.200Z,10.46
2019-04-06T01:45:35.991Z,10.20
2019-04-06T01:48:07.907Z,9.97
2019-04-06T01:50:39.805Z,10.05
2019-04-06T01:53:11.756Z,10.07
2019-04-06T01:55:43.595Z,9.89
2019-04-06T01:58:15.594Z,9.73
2019-04-06T02:01:04.967Z,9.60
2019-04-06T02:03:36.906Z,9.44
2019-04-06T02:06:08.733Z,9.38
2019-04-06T02:08:40.530Z,9.43
2019-04-06T02:11:12.340Z,9.46
2019-04-06T02:13:44.211Z,9.38
2019-04-06T02:16:16.066Z,9.31
2019-04-06T02:18:47.943Z,9.27
2019-04-06T02:21:19.109Z,9.36
2019-04-06T02:23:50.970Z,9.47
2019-04-06T02:26:30.385Z,9.63
2019-04-06T02:28:55.903Z,9.63
2019-04-06T02:31:52.637Z,9.46
2019-04-06T02:34:42.198Z,9.37
2019-04-06T02:37:32.851Z,9.42
2019-04-06T02:40:36.518Z,9.66
2019-04-06T02:43:14.952Z,9.73
2019-04-06T02:45:47.785Z,9.77
2019-04-06T02:48:18.906Z,9.80
2019-04-06T02:50:50.804Z,9.73
2019-04-06T02:53:22.605Z,9.87
2019-04-06T02:55:54.396Z,9.92
2019-04-06T02:58:26.330Z,10.06
2019-04-06T03:00:58.317Z,10.12
2019-04-06T03:03:29.817Z,10.07
2019-04-06T03:06:01.691Z,10.16
2019-04-06T03:08:33.820Z,10.12
2019-04-06T03:11:08.173Z,10.18
2019-04-06T03:13:40.025Z,10.19
2019-04-06T03:16:24.251Z,10.27
2019-04-06T03:18:59.172Z,10.25
2019-04-06T03:21:39.339Z,10.23
2019-04-06T03:24:14.061Z,10.21
2019-04-06T03:26:59.782Z,10.25
2019-04-06T03:29:21.432Z,10.20
2019-04-06T03:31:55.198Z,10.15
2019-04-06T03:34:27.345Z,10.08
2019-04-06T03:37:00.682Z,10.05
2019-04-06T03:39:31.903Z,9.99
2019-04-06T03:42:03.109Z,9.92
2019-04-06T03:44:35.110Z,9.94
2019-04-06T03:47:08.088Z,10.00
2019-04-06T03:49:42.934Z,10.03
2019-04-06T03:52:14.336Z,10.09
2019-04-06T03:54:46.292Z,10.12
2019-04-06T03:57:18.227Z,10.18
2019-04-06T03:59:53.112Z,10.17
2019-04-06T04:02:25.127Z,10.16
2019-04-06T04:04:59.874Z,10.16
2019-04-06T04:07:31.198Z,10.18
2019-04-06T04:10:03.314Z,10.17
2019-04-06T04:12:35.423Z,10.17
2019-04-06T04:15:07.767Z,10.24
2019-04-06T04:17:45.597Z,10.24
2019-04-06T04:20:17.652Z,10.18
2019-04-06T04:22:50.887Z,10.12
2019-04-06T04:25:22.464Z,10.05
2019-04-06T04:27:56.998Z,10.09
2019-04-06T04:30:32.993Z,10.16
2019-04-06T04:33:02.303Z,10.20
2019-04-06T04:35:34.577Z,10.21
2019-04-06T04:38:07.361Z,10.13
2019-04-06T04:40:40.554Z,10.17
2019-04-06T04:43:15.601Z,10.13
2019-04-06T04:45:46.959Z,10.15
2019-04-06T04:48:18.724Z,10.17
2019-04-06T04:50:50.677Z,10.25
2019-04-06T04:53:22.586Z,10.27
2019-04-06T04:55:54.575Z,10.30
2019-04-06T04:58:26.652Z,10.33
2019-04-06T05:00:57.959Z,10.30
2019-04-06T05:03:29.954Z,10.33
2019-04-06T05:06:01.838Z,10.30
2019-04-06T05:08:33.913Z,10.25
2019-04-06T05:11:06.709Z,10.24
2019-04-06T05:13:38.590Z,10.22
2019-04-06T05:16:14.758Z,10.20
2019-04-06T05:18:45.926Z,10.20
2019-04-06T05:21:17.762Z,10.23
2019-04-06T05:23:49.738Z,10.21
2019-04-06T05:26:21.650Z,10.23
2019-04-06T05:28:53.540Z,10.29
2019-04-06T05:31:25.407Z,10.33
2019-04-06T05:33:57.258Z,10.38
2019-04-06T05:36:29.154Z,10.43
2019-04-06T05:39:00.994Z,10.45
2019-04-06T05:41:33.119Z,10.49
2019-04-06T05:44:04.356Z,10.52
2019-04-06T05:46:36.150Z,10.52
2019-04-06T05:49:07.965Z,10.57
2019-04-06T05:51:39.841Z,10.65
2019-04-06T05:54:11.674Z,10.65
2019-04-06T05:56:43.498Z,10.64
2019-04-06T05:59:15.422Z,10.74
2019-04-06T06:01:48.939Z,10.79
2019-04-06T06:04:20.204Z,10.88
2019-04-06T06:06:52.617Z,10.92
2019-04-06T06:09:25.129Z,10.99
2019-04-06T06:11:56.332Z,11.08
2019-04-06T06:14:27.617Z,11.10
2019-04-06T06:16:58.723Z,11.10
2019-04-06T06:19:29.890Z,11.14
2019-04-06T06:22:01.896Z,11.25
2019-04-06T06:24:34.696Z,11.36
2019-04-06T06:27:06.776Z,11.41
2019-04-06T06:29:38.725Z,11.48
2019-04-06T06:32:10.658Z,11.66
2019-04-06T06:34:48.286Z,11.64
2019-04-06T06:37:19.830Z,11.71
2019-04-06T06:39:51.817Z,11.84
2019-04-06T06:42:23.922Z,12.03
2019-04-06T06:44:57.887Z,12.04
2019-04-06T06:47:30.449Z,12.06
2019-04-06T06:50:06.961Z,12.12
2019-04-06T06:52:39.098Z,12.24
2019-04-06T06:55:11.131Z,12.32
2019-04-06T06:57:42.989Z,12.28
2019-04-06T07:00:14.541Z,12.25
2019-04-06T07:02:46.397Z,12.46
2019-04-06T07:05:18.330Z,12.63
2019-04-06T07:07:50.193Z,13.04
2019-04-06T07:10:23.001Z,13.28
2019-04-06T07:12:54.922Z,13.08
2019-04-06T07:15:27.869Z,13.05
2019-04-06T07:17:59.981Z,12.96
2019-04-06T07:20:31.895Z,13.24
2019-04-06T07:23:03.886Z,13.23
2019-04-06T07:25:36.845Z,13.19
2019-04-06T07:28:08.974Z,13.31
2019-04-06T07:30:43.359Z,13.27
2019-04-06T07:33:14.659Z,13.33
2019-04-06T07:35:45.819Z,13.38
2019-04-06T07:38:17.706Z,13.65
2019-04-06T07:40:49.118Z,14.26
2019-04-06T07:43:20.367Z,13.67
2019-04-06T07:45:52.242Z,13.96
2019-04-06T07:48:24.408Z,14.14
2019-04-06T07:50:58.308Z,13.99
2019-04-06T07:53:30.008Z,14.05
2019-04-06T07:56:01.342Z,13.96
2019-04-06T07:58:32.625Z,13.59
2019-04-06T08:01:05.389Z,13.88
2019-04-06T08:03:37.363Z,13.95
2019-04-06T08:06:08.565Z,14.07
2019-04-06T08:08:39.629Z,14.08
2019-04-06T08:11:10.844Z,14.27
2019-04-06T08:13:42.717Z,14.34
2019-04-06T08:16:14.584Z,14.33
2019-04-06T08:18:46.011Z,14.59
2019-04-06T08:21:19.596Z,14.45
2019-04-06T08:23:49.951Z,14.52
2019-04-06T08:26:21.816Z,14.62
2019-04-06T08:29:00.228Z,14.54
2019-04-06T08:31:26.643Z,15.21
2019-04-06T08:33:57.829Z,14.76
2019-04-06T08:36:29.713Z,14.62
2019-04-06T08:39:00.954Z,14.65
2019-04-06T08:41:34.388Z,14.67
2019-04-06T08:44:06.441Z,14.70
2019-04-06T08:46:38.358Z,15.05
2019-04-06T08:49:10.270Z,15.61
2019-04-06T08:51:42.140Z,16.09
2019-04-06T08:54:14.034Z,15.57
2019-04-06T08:56:46.045Z,15.34
2019-04-06T08:59:17.900Z,15.39
2019-04-06T09:01:50.045Z,15.72
2019-04-06T09:04:21.216Z,15.47
2019-04-06T09:06:53.000Z,15.87
2019-04-06T09:09:24.868Z,15.66
2019-04-06T09:11:56.848Z,15.75
2019-04-06T09:14:28.858Z,15.70
2019-04-06T09:17:00.808Z,15.57
2019-04-06T09:19:32.756Z,15.83
2019-04-06T09:22:03.980Z,16.37
2019-04-06T09:24:35.765Z,16.33
2019-04-06T09:27:06.992Z,16.33
2019-04-06T09:29:38.793Z,16.48
2019-04-06T09:32:10.696Z,16.63
2019-04-06T09:34:43.657Z,16.59
2019-04-06T09:37:15.656Z,16.58
2019-04-06T09:39:46.901Z,16.44
2019-04-06T09:42:18.750Z,16.41
2019-04-06T09:45:12.583Z,16.49
2019-04-06T09:48:05.613Z,16.54
2019-04-06T09:50:59.347Z,16.74
2019-04-06T09:53:50.418Z,16.85
2019-04-06T09:56:42.114Z,16.93
2019-04-06T09:59:50.756Z,16.87
2019-04-06T10:02:45.611Z,16.94
2019-04-06T10:05:41.197Z,17.06
2019-04-06T10:08:31.420Z,17.14
2019-04-06T10:11:11.555Z,17.29
2019-04-06T10:14:00.136Z,17.26
2019-04-06T10:16:53.654Z,17.44
2019-04-06T10:19:56.292Z,17.50
2019-04-06T10:22:55.392Z,17.71
2019-04-06T10:25:37.129Z,17.73
2019-04-06T10:28:31.072Z,17.71
2019-04-06T10:31:30.577Z,17.82
2019-04-06T10:34:23.724Z,17.94
2019-04-06T10:37:06.460Z,17.99
2019-04-06T10:39:46.852Z,18.15
2019-04-06T10:42:31.628Z,18.26
2019-04-06T10:45:15.398Z,18.34
2019-04-06T10:48:21.349Z,18.53
2019-04-06T10:51:15.001Z,18.48
2019-04-06T10:54:08.446Z,18.49
2019-04-06T10:56:55.993Z,18.69
2019-04-06T11:00:03.188Z,18.80
2019-04-06T11:03:01.981Z,18.79
2019-04-06T11:05:55.510Z,18.93
2019-04-06T11:08:33.838Z,19.04
2019-04-06T11:11:23.183Z,19.06
2019-04-06T11:14:25.613Z,19.12
2019-04-06T11:17:15.989Z,19.14
2019-04-06T11:19:55.042Z,19.40
2019-04-06T11:22:44.631Z,19.24
2019-04-06T11:25:32.096Z,19.42
2019-04-06T11:28:29.385Z,19.56
2019-04-06T11:31:22.689Z,19.53
2019-04-06T11:34:25.659Z,19.65
2019-04-06T11:37:14.893Z,19.72
2019-04-06T11:40:04.471Z,19.75
2019-04-06T11:42:55.538Z,19.87
2019-04-06T11:45:48.067Z,19.93
2019-04-06T11:48:45.717Z,20.10
2019-04-06T11:51:30.011Z,20.11
2019-04-06T11:54:33.182Z,20.20
2019-04-06T11:57:11.419Z,20.24
2019-04-06T12:00:07.429Z,20.26
2019-04-06T12:03:04.729Z,20.22
2019-04-06T12:05:44.646Z,20.38
2019-04-06T12:08:40.330Z,20.24
2019-04-06T12:11:27.269Z,20.20
2019-04-06T12:14:17.639Z,20.19
2019-04-06T12:17:16.012Z,20.24
2019-04-06T12:20:17.629Z,20.33
2019-04-06T12:23:07.986Z,20.38
2019-04-06T12:26:01.576Z,20.34
2019-04-06T12:28:53.630Z,20.33
2019-04-06T12:31:46.928Z,20.43
2019-04-06T12:34:37.667Z,20.33
2019-04-06T12:37:43.497Z,20.30
2019-04-06T12:40:43.524Z,20.32
2019-04-06T12:43:33.360Z,20.45
2019-04-06T12:46:20.966Z,20.56
2019-04-06T12:49:11.081Z,20.58
2019-04-06T12:52:08.266Z,20.50
2019-04-06T12:55:02.457Z,20.48
2019-04-06T12:57:50.062Z,20.37
2019-04-06T13:00:52.621Z,20.53
2019-04-06T13:03:40.174Z,20.54
2019-04-06T13:06:37.875Z,20.63
2019-04-06T13:09:38.050Z,20.60
2019-04-06T13:12:26.666Z,20.59
2019-04-06T13:15:10.757Z,20.74
2019-04-06T13:18:15.119Z,20.76
2019-04-06T13:21:06.982Z,20.80
2019-04-06T13:24:00.957Z,20.90
2019-04-06T13:27:01.733Z,20.87
2019-04-06T13:29:54.638Z,20.70
2019-04-06T13:32:45.406Z,20.69
2019-04-06T13:35:36.960Z,20.78
2019-04-06T13:38:26.117Z,20.78
2019-04-06T13:41:10.513Z,20.76
2019-04-06T13:43:58.469Z,20.78
2019-04-06T13:46:58.197Z,20.83
2019-04-06T13:49:47.649Z,20.87
2019-04-06T13:52:29.698Z,20.78
2019-04-06T13:55:38.878Z,20.76
2019-04-06T13:58:32.055Z,20.89
2019-04-06T14:01:17.096Z,21.00
2019-04-06T14:03:58.982Z,20.98
2019-04-06T14:06:49.797Z,21.08
2019-04-06T14:09:38.718Z,21.07
2019-04-06T14:12:28.571Z,21.03
2019-04-06T14:15:29.616Z,21.16
2019-04-06T14:18:20.065Z,21.09
2019-04-06T14:21:10.246Z,21.13
2019-04-06T14:23:56.496Z,20.97
2019-04-06T14:26:46.758Z,20.88
2019-04-06T14:29:46.155Z,20.82
2019-04-06T14:32:43.229Z,20.85
2019-04-06T14:35:32.776Z,20.88
2019-04-06T14:38:36.908Z,21.00
2019-04-06T14:41:25.604Z,20.84
2019-04-06T14:44:37.855Z,20.79
2019-04-06T14:47:23.232Z,20.71
2019-04-06T14:50:11.202Z,20.79
2019-04-06T14:52:55.021Z,20.70
2019-04-06T14:55:49.115Z,20.70
2019-04-06T14:58:45.185Z,20.83
2019-04-06T15:01:45.606Z,20.85
2019-04-06T15:04:29.045Z,20.86
2019-04-06T15:07:33.615Z,20.85
2019-04-06T15:10:24.145Z,20.67
2019-04-06T15:13:13.105Z,20.69
2019-04-06T15:16:20.273Z,20.61
2019-04-06T15:19:17.722Z,20.58
2019-04-06T15:21:56.653Z,20.61
2019-04-06T15:24:50.827Z,20.50
2019-04-06T15:27:45.495Z,20.38
2019-04-06T15:31:05.386Z,20.53
2019-04-06T15:34:14.475Z,20.52
2019-04-06T15:37:03.195Z,20.40
2019-04-06T15:40:12.353Z,20.28
2019-04-06T15:42:59.089Z,20.38
2019-04-06T15:45:45.685Z,20.36
2019-04-06T15:48:38.030Z,20.31
2019-04-06T15:51:42.088Z,20.33
2019-04-06T15:54:29.893Z,20.26
2019-04-06T15:57:31.266Z,20.13
2019-04-06T16:00:18.072Z,20.07
2019-04-06T16:03:28.753Z,20.17
2019-04-06T16:06:16.979Z,20.16
2019-04-06T16:09:27.264Z,19.96
2019-04-06T16:12:19.049Z,19.90
2019-04-06T16:15:08.413Z,19.80
2019-04-06T16:18:06.577Z,19.66
2019-04-06T16:20:44.201Z,19.69
2019-04-06T16:24:02.313Z,19.61
2019-04-06T16:26:45.288Z,19.51
2019-04-06T16:29:34.479Z,19.45
2019-04-06T16:32:33.497Z,19.30
2019-04-06T16:35:23.110Z,19.30
2019-04-06T16:38:17.917Z,19.24
2019-04-06T16:41:17.662Z,19.14
2019-04-06T16:44:06.401Z,19.18
2019-04-06T16:47:02.706Z,19.05
2019-04-06T16:49:55.786Z,19.00
2019-04-06T16:52:48.795Z,19.01
2019-04-06T16:55:31.308Z,19.05
2019-04-06T16:58:33.815Z,18.96
2019-04-06T17:01:30.852Z,18.83
2019-04-06T17:04:19.875Z,18.70
2019-04-06T17:07:15.886Z,18.76
2019-04-06T17:10:01.029Z,18.61
2019-04-06T17:13:02.250Z,18.51
2019-04-06T17:15:56.497Z,18.42
2019-04-06T17:18:46.626Z,18.26
2019-04-06T17:21:34.493Z,18.26
2019-04-06T17:24:40.140Z,18.07
2019-04-06T17:28:32.972Z,17.96
2019-04-06T17:30:32.189Z,17.68
2019-04-06T17:33:21.374Z,17.51
2019-04-06T17:36:06.799Z,17.37
2019-04-06T17:38:59.949Z,17.17
2019-04-06T17:41:52.173Z,17.15
2019-04-06T17:44:55.250Z,17.04
2019-04-06T17:47:45.625Z,16.92
2019-04-06T17:50:48.803Z,16.89
2019-04-06T17:53:42.068Z,16.98
2019-04-06T17:56:30.088Z,16.86
2019-04-06T17:59:22.361Z,16.80
2019-04-06T18:02:18.986Z,16.82
2019-04-06T18:05:03.392Z,16.73
2019-04-06T18:07:57.137Z,16.36
2019-04-06T18:10:50.114Z,16.29
2019-04-06T18:13:28.520Z,16.22
2019-04-06T18:16:00.582Z,16.17
2019-04-06T18:18:32.662Z,16.12
2019-04-06T18:21:33.865Z,16.14
2019-04-06T18:23:55.646Z,15.99
2019-04-06T18:26:27.858Z,15.88
2019-04-06T18:28:59.864Z,15.82
2019-04-06T18:31:53.587Z,15.82
2019-04-06T18:34:27.414Z,15.73
2019-04-06T18:37:25.690Z,15.65
2019-04-06T18:39:58.384Z,15.70
2019-04-06T18:42:29.729Z,15.60
2019-04-06T18:45:04.574Z,15.60
2019-04-06T18:47:36.859Z,15.56
2019-04-06T18:50:34.206Z,15.70
2019-04-06T18:52:53.111Z,15.71
2019-04-06T18:55:25.441Z,15.77
2019-04-06T18:58:08.876Z,15.83
2019-04-06T19:00:30.946Z,15.60
2019-04-06T19:03:15.091Z,15.54
2019-04-06T19:05:45.452Z,15.55
2019-04-06T19:08:16.940Z,15.55
2019-04-06T19:10:48.668Z,15.51
2019-04-06T19:13:20.506Z,15.36
2019-04-06T19:15:52.901Z,15.21
2019-04-06T19:18:25.770Z,15.14
2019-04-06T19:20:56.980Z,15.12
2019-04-06T19:23:28.409Z,15.04
2019-04-06T19:25:59.521Z,14.95
2019-04-06T19:28:31.441Z,14.80
2019-04-06T19:31:03.716Z,14.82
2019-04-06T19:33:35.155Z,14.79
2019-04-06T19:36:07.031Z,14.85
2019-04-06T19:38:42.956Z,14.84
2019-04-06T19:41:14.684Z,14.91
2019-04-06T19:43:46.722Z,14.68
2019-04-06T19:46:20.228Z,14.72
2019-04-06T19:48:53.685Z,14.61
2019-04-06T19:51:29.933Z,14.57
2019-04-06T19:54:05.781Z,14.43
2019-04-06T19:56:39.862Z,14.36
2019-04-06T19:59:14.004Z,14.21
2019-04-06T20:01:49.252Z,14.27
2019-04-06T20:04:22.800Z,14.42
2019-04-06T20:06:54.557Z,14.24
2019-04-06T20:09:25.784Z,14.39
2019-04-06T20:12:04.142Z,14.09
2019-04-06T20:14:30.069Z,14.17
2019-04-06T20:17:02.034Z,14.03
2019-04-06T20:19:35.096Z,14.03
2019-04-06T20:22:07.499Z,14.04
2019-04-06T20:24:39.227Z,14.02
2019-04-06T20:27:10.587Z,13.94
2019-04-06T20:29:42.045Z,13.79
2019-04-06T20:32:13.364Z,13.85
2019-04-06T20:34:47.449Z,13.77
2019-04-06T20:37:21.568Z,13.69
2019-04-06T20:39:54.775Z,13.71
2019-04-06T20:42:27.234Z,13.77
2019-04-06T20:45:00.684Z,13.66
2019-04-06T20:47:33.228Z,13.58
2019-04-06T20:50:05.051Z,13.54
2019-04-06T20:52:37.284Z,13.52
2019-04-06T20:55:10.154Z,13.37
2019-04-06T20:57:41.461Z,13.24
2019-04-06T21:00:12.974Z,13.27
2019-04-06T21:02:45.167Z,13.31
2019-04-06T21:05:16.742Z,13.11
2019-04-06T21:07:48.850Z,13.01
2019-04-06T21:10:20.246Z,12.98
2019-04-06T21:12:52.632Z,13.10
2019-04-06T21:15:24.915Z,13.11
2019-04-06T21:17:56.708Z,13.14
2019-04-06T21:20:27.850Z,13.11
2019-04-06T21:23:00.143Z,13.08
2019-04-06T21:25:31.387Z,13.06
2019-04-06T21:28:04.222Z,13.10
2019-04-06T21:30:35.692Z,12.92
2019-04-06T21:33:09.016Z,12.89
2019-04-06T21:35:41.113Z,12.85
2019-04-06T21:38:12.550Z,12.85
2019-04-06T21:40:45.048Z,12.85
2019-04-06T21:43:17.297Z,12.81
2019-04-06T21:45:49.992Z,12.68
2019-04-06T21:48:22.474Z,12.68
2019-04-06T21:50:54.873Z,12.68
2019-04-06T21:53:26.811Z,12.61
2019-04-06T21:56:03.479Z,12.41
2019-04-06T21:58:32.465Z,12.29
2019-04-06T22:01:05.914Z,12.46
2019-04-06T22:03:38.124Z,12.39
2019-04-06T22:06:10.086Z,12.42
2019-04-06T22:08:42.023Z,12.30
2019-04-06T22:11:13.928Z,12.11
2019-04-06T22:13:45.869Z,12.21
2019-04-06T22:16:17.898Z,12.21
2019-04-06T22:18:49.872Z,12.30
2019-04-06T22:21:21.594Z,12.17
2019-04-06T22:23:54.704Z,12.17
2019-04-06T22:26:27.712Z,12.19
2019-04-06T22:28:59.626Z,11.96
2019-04-06T22:31:32.323Z,12.09
2019-04-06T22:34:03.626Z,11.90
2019-04-06T22:36:35.616Z,11.67
2019-04-06T22:39:11.065Z,11.57
2019-04-06T22:41:43.353Z,11.41
2019-04-06T22:44:15.245Z,11.37
2019-04-06T22:46:47.568Z,11.32
2019-04-06T22:49:19.629Z,11.22
2019-04-06T22:51:51.640Z,11.00
2019-04-06T22:54:23.942Z,10.87
2019-04-06T22:56:55.344Z,10.76
2019-04-06T22:59:27.255Z,10.66
2019-04-06T23:01:59.077Z,10.52
2019-04-06T23:04:47.533Z,10.44
2019-04-06T23:07:14.997Z,10.36
2019-04-06T23:09:47.153Z,10.31
2019-04-06T23:12:19.037Z,10.23
2019-04-06T23:14:52.212Z,10.18
2019-04-06T23:17:24.135Z,10.24
2019-04-06T23:19:55.945Z,10.34
2019-04-06T23:22:27.812Z,10.47
2019-04-06T23:24:59.729Z,10.42
2019-04-06T23:27:31.806Z,10.36
2019-04-06T23:30:04.492Z,10.31
2019-04-06T23:32:36.413Z,10.29
2019-04-06T23:35:08.379Z,10.32
2019-04-06T23:37:40.351Z,10.31
2019-04-06T23:40:12.299Z,10.28
2019-04-06T23:42:43.483Z,10.23
2019-04-06T23:45:15.373Z,10.19
2019-04-06T23:47:48.349Z,10.17
2019-04-06T23:50:20.254Z,10.09
2019-04-06T23:52:51.588Z,9.89
2019-04-06T23:55:22.801Z,9.81
2019-04-06T23:57:54.620Z,9.84
